sensor_id;sensor_type;location;lat;lon;timestamp;P1;durP1;ratioP1;P2;durP2;ratioP2
45206;SDS011;30950;53.086;21.576;2023-08-20T00:01:47;26.63;;;24.20;;
45206;SDS011;30950;53.086;21.576;2023-08-20T00:04:23;20.17;;;18.23;;
45206;SDS011;30950;53.086;21.576;2023-08-20T00:06:52;22.25;;;20.05;;
45206;SDS011;30950;53.086;21.576;2023-08-20T00:09:20;18.15;;;16.25;;
45206;SDS011;30950;53.086;21.576;2023-08-20T00:11:48;19.35;;;17.40;;
45206;SDS011;30950;53.086;21.576;2023-08-20T00:14:16;19.38;;;17.38;;
45206;SDS011;30950;53.086;21.576;2023-08-20T00:16:44;21.45;;;19.23;;
45206;SDS011;30950;53.086;21.576;2023-08-20T00:19:12;22.70;;;20.58;;
45206;SDS011;30950;53.086;21.576;2023-08-20T00:21:43;25.15;;;22.75;;
45206;SDS011;30950;53.086;21.576;2023-08-20T00:24:11;25.95;;;23.50;;
45206;SDS011;30950;53.086;21.576;2023-08-20T00:26:39;20.30;;;18.30;;
45206;SDS011;30950;53.086;21.576;2023-08-20T00:29:07;22.52;;;20.38;;
45206;SDS011;30950;53.086;21.576;2023-08-20T00:31:35;26.00;;;23.42;;
45206;SDS011;30950;53.086;21.576;2023-08-20T00:34:02;25.17;;;22.75;;
45206;SDS011;30950;53.086;21.576;2023-08-20T00:36:33;19.95;;;17.95;;
45206;SDS011;30950;53.086;21.576;2023-08-20T00:39:01;21.42;;;17.98;;
45206;SDS011;30950;53.086;21.576;2023-08-20T00:41:28;24.20;;;22.00;;
45206;SDS011;30950;53.086;21.576;2023-08-20T00:43:57;25.45;;;23.05;;
45206;SDS011;30950;53.086;21.576;2023-08-20T00:46:26;20.63;;;18.52;;
45206;SDS011;30950;53.086;21.576;2023-08-20T00:48:54;20.35;;;18.25;;
45206;SDS011;30950;53.086;21.576;2023-08-20T00:51:22;22.08;;;19.77;;
45206;SDS011;30950;53.086;21.576;2023-08-20T00:53:50;24.73;;;22.45;;
45206;SDS011;30950;53.086;21.576;2023-08-20T00:56:17;24.70;;;22.20;;
45206;SDS011;30950;53.086;21.576;2023-08-20T00:58:45;20.98;;;18.85;;
45206;SDS011;30950;53.086;21.576;2023-08-20T01:01:12;19.10;;;17.20;;
45206;SDS011;30950;53.086;21.576;2023-08-20T01:03:40;22.65;;;20.55;;
45206;SDS011;30950;53.086;21.576;2023-08-20T01:06:12;21.80;;;19.30;;
45206;SDS011;30950;53.086;21.576;2023-08-20T01:09:03;21.23;;;19.17;;
45206;SDS011;30950;53.086;21.576;2023-08-20T01:11:37;19.63;;;17.70;;
45206;SDS011;30950;53.086;21.576;2023-08-20T01:14:14;21.85;;;19.83;;
45206;SDS011;30950;53.086;21.576;2023-08-20T01:16:43;22.05;;;19.92;;
45206;SDS011;30950;53.086;21.576;2023-08-20T01:19:12;24.38;;;22.10;;
45206;SDS011;30950;53.086;21.576;2023-08-20T01:22:00;20.90;;;18.90;;
45206;SDS011;30950;53.086;21.576;2023-08-20T01:24:45;19.33;;;17.35;;
45206;SDS011;30950;53.086;21.576;2023-08-20T01:30:31;21.70;;;19.70;;
45206;SDS011;30950;53.086;21.576;2023-08-20T01:32:59;18.90;;;16.92;;
45206;SDS011;30950;53.086;21.576;2023-08-20T01:35:29;22.48;;;20.23;;
45206;SDS011;30950;53.086;21.576;2023-08-20T01:38:02;22.38;;;20.20;;
45206;SDS011;30950;53.086;21.576;2023-08-20T01:40:30;19.17;;;17.27;;
45206;SDS011;30950;53.086;21.576;2023-08-20T01:42:58;22.55;;;20.38;;
45206;SDS011;30950;53.086;21.576;2023-08-20T01:45:26;23.65;;;21.33;;
45206;SDS011;30950;53.086;21.576;2023-08-20T01:47:53;23.88;;;21.48;;
45206;SDS011;30950;53.086;21.576;2023-08-20T01:50:21;21.27;;;19.17;;
45206;SDS011;30950;53.086;21.576;2023-08-20T01:52:48;20.65;;;18.63;;
45206;SDS011;30950;53.086;21.576;2023-08-20T01:55:15;19.83;;;17.83;;
45206;SDS011;30950;53.086;21.576;2023-08-20T01:57:43;20.33;;;18.33;;
45206;SDS011;30950;53.086;21.576;2023-08-20T02:00:11;22.45;;;20.05;;
45206;SDS011;30950;53.086;21.576;2023-08-20T02:02:41;22.42;;;20.23;;
45206;SDS011;30950;53.086;21.576;2023-08-20T02:05:09;23.67;;;21.50;;
45206;SDS011;30950;53.086;21.576;2023-08-20T02:07:39;25.25;;;22.65;;
45206;SDS011;30950;53.086;21.576;2023-08-20T02:10:07;24.48;;;22.13;;
45206;SDS011;30950;53.086;21.576;2023-08-20T02:12:35;22.67;;;20.45;;
45206;SDS011;30950;53.086;21.576;2023-08-20T02:15:04;24.27;;;21.77;;
45206;SDS011;30950;53.086;21.576;2023-08-20T02:17:32;21.15;;;19.15;;
45206;SDS011;30950;53.086;21.576;2023-08-20T02:20:00;26.48;;;23.75;;
45206;SDS011;30950;53.086;21.576;2023-08-20T02:22:27;23.92;;;21.55;;
45206;SDS011;30950;53.086;21.576;2023-08-20T02:24:56;24.67;;;21.98;;
45206;SDS011;30950;53.086;21.576;2023-08-20T02:27:23;21.50;;;19.40;;
45206;SDS011;30950;53.086;21.576;2023-08-20T02:29:51;20.80;;;18.70;;
45206;SDS011;30950;53.086;21.576;2023-08-20T02:32:18;26.38;;;23.85;;
45206;SDS011;30950;53.086;21.576;2023-08-20T02:34:52;27.17;;;24.20;;
45206;SDS011;30950;53.086;21.576;2023-08-20T02:37:25;22.40;;;20.20;;
45206;SDS011;30950;53.086;21.576;2023-08-20T02:39:52;25.98;;;23.60;;
45206;SDS011;30950;53.086;21.576;2023-08-20T02:42:20;24.33;;;22.02;;
45206;SDS011;30950;53.086;21.576;2023-08-20T02:44:47;25.50;;;23.10;;
45206;SDS011;30950;53.086;21.576;2023-08-20T02:47:15;25.95;;;23.55;;
45206;SDS011;30950;53.086;21.576;2023-08-20T02:49:42;24.70;;;22.15;;
45206;SDS011;30950;53.086;21.576;2023-08-20T02:52:10;23.50;;;20.88;;
45206;SDS011;30950;53.086;21.576;2023-08-20T02:54:38;26.30;;;23.50;;
45206;SDS011;30950;53.086;21.576;2023-08-20T02:57:05;29.90;;;26.92;;
45206;SDS011;30950;53.086;21.576;2023-08-20T02:59:33;23.60;;;21.23;;
45206;SDS011;30950;53.086;21.576;2023-08-20T03:02:01;26.48;;;23.80;;
45206;SDS011;30950;53.086;21.576;2023-08-20T03:04:31;24.42;;;21.85;;
45206;SDS011;30950;53.086;21.576;2023-08-20T03:06:59;25.00;;;22.35;;
45206;SDS011;30950;53.086;21.576;2023-08-20T03:09:26;22.70;;;20.33;;
45206;SDS011;30950;53.086;21.576;2023-08-20T03:11:54;25.45;;;22.58;;
45206;SDS011;30950;53.086;21.576;2023-08-20T03:14:22;20.92;;;18.92;;
45206;SDS011;30950;53.086;21.576;2023-08-20T03:16:52;27.20;;;24.35;;
45206;SDS011;30950;53.086;21.576;2023-08-20T03:19:20;22.27;;;20.15;;
45206;SDS011;30950;53.086;21.576;2023-08-20T03:21:47;25.65;;;23.35;;
45206;SDS011;30950;53.086;21.576;2023-08-20T03:24:15;22.92;;;20.73;;
45206;SDS011;30950;53.086;21.576;2023-08-20T03:26:42;22.95;;;20.85;;
45206;SDS011;30950;53.086;21.576;2023-08-20T03:29:10;24.73;;;22.33;;
45206;SDS011;30950;53.086;21.576;2023-08-20T03:31:39;25.73;;;23.33;;
45206;SDS011;30950;53.086;21.576;2023-08-20T03:34:07;22.17;;;20.08;;
45206;SDS011;30950;53.086;21.576;2023-08-20T03:36:37;21.15;;;18.90;;
45206;SDS011;30950;53.086;21.576;2023-08-20T03:39:05;23.15;;;20.95;;
45206;SDS011;30950;53.086;21.576;2023-08-20T03:41:32;20.73;;;18.67;;
45206;SDS011;30950;53.086;21.576;2023-08-20T03:44:00;23.10;;;20.77;;
45206;SDS011;30950;53.086;21.576;2023-08-20T03:46:27;22.40;;;20.08;;
45206;SDS011;30950;53.086;21.576;2023-08-20T03:48:55;19.60;;;17.67;;
45206;SDS011;30950;53.086;21.576;2023-08-20T03:51:22;24.25;;;21.98;;
45206;SDS011;30950;53.086;21.576;2023-08-20T03:53:50;21.42;;;19.40;;
45206;SDS011;30950;53.086;21.576;2023-08-20T03:56:17;22.70;;;20.60;;
45206;SDS011;30950;53.086;21.576;2023-08-20T03:58:45;20.77;;;18.88;;
45206;SDS011;30950;53.086;21.576;2023-08-20T04:01:12;21.15;;;19.15;;
45206;SDS011;30950;53.086;21.576;2023-08-20T04:03:40;21.35;;;19.27;;
45206;SDS011;30950;53.086;21.576;2023-08-20T04:06:07;22.23;;;20.02;;
45206;SDS011;30950;53.086;21.576;2023-08-20T04:08:36;21.05;;;18.95;;
45206;SDS011;30950;53.086;21.576;2023-08-20T04:11:03;20.52;;;18.50;;
45206;SDS011;30950;53.086;21.576;2023-08-20T04:13:31;25.63;;;23.20;;
45206;SDS011;30950;53.086;21.576;2023-08-20T04:15:58;20.52;;;18.58;;
45206;SDS011;30950;53.086;21.576;2023-08-20T04:18:26;18.52;;;16.75;;
45206;SDS011;30950;53.086;21.576;2023-08-20T04:20:55;17.00;;;15.40;;
45206;SDS011;30950;53.086;21.576;2023-08-20T04:23:24;15.90;;;14.38;;
45206;SDS011;30950;53.086;21.576;2023-08-20T04:25:52;19.42;;;17.75;;
45206;SDS011;30950;53.086;21.576;2023-08-20T04:28:19;16.42;;;14.75;;
45206;SDS011;30950;53.086;21.576;2023-08-20T04:30:48;16.20;;;14.60;;
45206;SDS011;30950;53.086;21.576;2023-08-20T04:33:16;19.92;;;17.88;;
45206;SDS011;30950;53.086;21.576;2023-08-20T04:35:45;16.30;;;14.75;;
45206;SDS011;30950;53.086;21.576;2023-08-20T04:38:13;16.55;;;15.02;;
45206;SDS011;30950;53.086;21.576;2023-08-20T04:40:40;17.58;;;15.95;;
45206;SDS011;30950;53.086;21.576;2023-08-20T04:43:08;16.45;;;14.95;;
45206;SDS011;30950;53.086;21.576;2023-08-20T04:45:35;16.33;;;14.82;;
45206;SDS011;30950;53.086;21.576;2023-08-20T04:48:03;17.38;;;15.75;;
45206;SDS011;30950;53.086;21.576;2023-08-20T04:50:30;16.48;;;14.88;;
45206;SDS011;30950;53.086;21.576;2023-08-20T04:52:59;16.80;;;15.00;;
45206;SDS011;30950;53.086;21.576;2023-08-20T04:55:27;17.60;;;14.93;;
45206;SDS011;30950;53.086;21.576;2023-08-20T04:57:55;16.80;;;15.20;;
45206;SDS011;30950;53.086;21.576;2023-08-20T05:00:23;17.42;;;15.73;;
45206;SDS011;30950;53.086;21.576;2023-08-20T05:03:06;17.98;;;16.35;;
45206;SDS011;30950;53.086;21.576;2023-08-20T05:05:34;19.98;;;17.98;;
45206;SDS011;30950;53.086;21.576;2023-08-20T05:08:01;20.77;;;18.75;;
45206;SDS011;30950;53.086;21.576;2023-08-20T05:10:29;22.30;;;20.40;;
45206;SDS011;30950;53.086;21.576;2023-08-20T05:12:57;20.33;;;18.42;;
45206;SDS011;30950;53.086;21.576;2023-08-20T05:15:26;21.02;;;19.13;;
45206;SDS011;30950;53.086;21.576;2023-08-20T05:17:53;23.08;;;20.88;;
45206;SDS011;30950;53.086;21.576;2023-08-20T05:20:21;22.30;;;20.20;;
45206;SDS011;30950;53.086;21.576;2023-08-20T05:22:48;28.27;;;25.60;;
45206;SDS011;30950;53.086;21.576;2023-08-20T05:25:16;27.08;;;24.58;;
45206;SDS011;30950;53.086;21.576;2023-08-20T05:27:43;28.20;;;25.55;;
45206;SDS011;30950;53.086;21.576;2023-08-20T05:30:11;27.70;;;25.10;;
45206;SDS011;30950;53.086;21.576;2023-08-20T05:32:39;21.77;;;19.77;;
45206;SDS011;30950;53.086;21.576;2023-08-20T05:35:06;18.63;;;16.45;;
45206;SDS011;30950;53.086;21.576;2023-08-20T05:37:34;20.10;;;18.20;;
45206;SDS011;30950;53.086;21.576;2023-08-20T05:40:01;24.08;;;21.73;;
45206;SDS011;30950;53.086;21.576;2023-08-20T05:42:32;23.70;;;21.55;;
45206;SDS011;30950;53.086;21.576;2023-08-20T05:45:04;23.67;;;21.45;;
45206;SDS011;30950;53.086;21.576;2023-08-20T05:47:33;24.30;;;22.05;;
45206;SDS011;30950;53.086;21.576;2023-08-20T05:50:06;22.48;;;20.17;;
45206;SDS011;30950;53.086;21.576;2023-08-20T05:52:34;21.02;;;18.83;;
45206;SDS011;30950;53.086;21.576;2023-08-20T05:55:01;22.48;;;20.40;;
45206;SDS011;30950;53.086;21.576;2023-08-20T05:57:30;21.90;;;19.73;;
45206;SDS011;30950;53.086;21.576;2023-08-20T05:59:58;23.13;;;20.83;;
45206;SDS011;30950;53.086;21.576;2023-08-20T06:02:25;17.90;;;16.13;;
45206;SDS011;30950;53.086;21.576;2023-08-20T06:04:52;18.52;;;16.55;;
45206;SDS011;30950;53.086;21.576;2023-08-20T06:07:20;16.98;;;15.18;;
45206;SDS011;30950;53.086;21.576;2023-08-20T06:09:48;18.48;;;16.67;;
45206;SDS011;30950;53.086;21.576;2023-08-20T06:12:17;16.60;;;15.07;;
45206;SDS011;30950;53.086;21.576;2023-08-20T06:14:44;16.60;;;14.95;;
45206;SDS011;30950;53.086;21.576;2023-08-20T06:17:13;17.02;;;15.35;;
45206;SDS011;30950;53.086;21.576;2023-08-20T06:19:40;17.17;;;15.48;;
45206;SDS011;30950;53.086;21.576;2023-08-20T06:22:08;15.25;;;13.38;;
45206;SDS011;30950;53.086;21.576;2023-08-20T06:24:36;18.60;;;16.70;;
45206;SDS011;30950;53.086;21.576;2023-08-20T06:27:04;18.00;;;16.20;;
45206;SDS011;30950;53.086;21.576;2023-08-20T06:29:34;20.02;;;18.13;;
45206;SDS011;30950;53.086;21.576;2023-08-20T06:32:01;16.20;;;14.52;;
45206;SDS011;30950;53.086;21.576;2023-08-20T06:34:29;17.25;;;13.95;;
45206;SDS011;30950;53.086;21.576;2023-08-20T06:36:56;15.65;;;14.15;;
45206;SDS011;30950;53.086;21.576;2023-08-20T06:39:23;14.65;;;12.98;;
45206;SDS011;30950;53.086;21.576;2023-08-20T06:41:51;15.27;;;13.88;;
45206;SDS011;30950;53.086;21.576;2023-08-20T06:44:19;16.58;;;14.88;;
45206;SDS011;30950;53.086;21.576;2023-08-20T06:46:47;19.33;;;17.33;;
45206;SDS011;30950;53.086;21.576;2023-08-20T06:49:14;17.90;;;16.08;;
45206;SDS011;30950;53.086;21.576;2023-08-20T06:51:41;15.20;;;13.65;;
45206;SDS011;30950;53.086;21.576;2023-08-20T06:54:09;14.32;;;12.95;;
45206;SDS011;30950;53.086;21.576;2023-08-20T06:56:39;14.32;;;13.02;;
45206;SDS011;30950;53.086;21.576;2023-08-20T06:59:07;16.02;;;14.38;;
45206;SDS011;30950;53.086;21.576;2023-08-20T07:01:34;17.42;;;15.73;;
45206;SDS011;30950;53.086;21.576;2023-08-20T07:04:01;14.20;;;12.57;;
45206;SDS011;30950;53.086;21.576;2023-08-20T07:06:30;17.25;;;15.55;;
45206;SDS011;30950;53.086;21.576;2023-08-20T07:08:57;17.13;;;14.43;;
45206;SDS011;30950;53.086;21.576;2023-08-20T07:11:25;17.95;;;16.17;;
45206;SDS011;30950;53.086;21.576;2023-08-20T07:13:52;15.43;;;14.05;;
45206;SDS011;30950;53.086;21.576;2023-08-20T07:16:20;16.98;;;15.23;;
45206;SDS011;30950;53.086;21.576;2023-08-20T07:18:47;12.57;;;11.27;;
45206;SDS011;30950;53.086;21.576;2023-08-20T07:21:14;10.73;;;9.70;;
45206;SDS011;30950;53.086;21.576;2023-08-20T07:23:45;9.05;;;8.15;;
45206;SDS011;30950;53.086;21.576;2023-08-20T07:26:12;11.60;;;10.40;;
45206;SDS011;30950;53.086;21.576;2023-08-20T07:28:39;11.75;;;10.57;;
45206;SDS011;30950;53.086;21.576;2023-08-20T07:31:26;12.05;;;10.85;;
45206;SDS011;30950;53.086;21.576;2023-08-20T07:33:59;11.15;;;8.40;;
45206;SDS011;30950;53.086;21.576;2023-08-20T07:36:30;11.40;;;9.93;;
45206;SDS011;30950;53.086;21.576;2023-08-20T07:38:59;11.50;;;10.50;;
45206;SDS011;30950;53.086;21.576;2023-08-20T07:41:28;11.07;;;10.07;;
45206;SDS011;30950;53.086;21.576;2023-08-20T07:43:55;10.98;;;9.88;;
45206;SDS011;30950;53.086;21.576;2023-08-20T07:46:23;10.68;;;9.68;;
45206;SDS011;30950;53.086;21.576;2023-08-20T07:48:50;11.55;;;10.35;;
45206;SDS011;30950;53.086;21.576;2023-08-20T07:51:17;10.23;;;9.32;;
45206;SDS011;30950;53.086;21.576;2023-08-20T07:53:45;14.70;;;11.32;;
45206;SDS011;30950;53.086;21.576;2023-08-20T07:56:12;10.75;;;9.50;;
45206;SDS011;30950;53.086;21.576;2023-08-20T07:58:40;14.40;;;9.75;;
45206;SDS011;30950;53.086;21.576;2023-08-20T08:01:07;10.80;;;9.70;;
45206;SDS011;30950;53.086;21.576;2023-08-20T08:03:35;10.95;;;9.85;;
45206;SDS011;30950;53.086;21.576;2023-08-20T08:06:02;11.80;;;10.70;;
45206;SDS011;30950;53.086;21.576;2023-08-20T08:08:30;10.30;;;9.23;;
45206;SDS011;30950;53.086;21.576;2023-08-20T08:10:57;10.20;;;9.30;;
45206;SDS011;30950;53.086;21.576;2023-08-20T08:13:25;11.23;;;10.13;;
45206;SDS011;30950;53.086;21.576;2023-08-20T08:15:52;13.45;;;9.63;;
45206;SDS011;30950;53.086;21.576;2023-08-20T08:18:20;12.65;;;11.40;;
45206;SDS011;30950;53.086;21.576;2023-08-20T08:20:47;12.70;;;11.40;;
45206;SDS011;30950;53.086;21.576;2023-08-20T08:23:15;13.80;;;10.77;;
45206;SDS011;30950;53.086;21.576;2023-08-20T08:25:43;10.00;;;8.90;;
45206;SDS011;30950;53.086;21.576;2023-08-20T08:28:10;12.13;;;10.95;;
45206;SDS011;30950;53.086;21.576;2023-08-20T08:30:38;12.43;;;11.13;;
45206;SDS011;30950;53.086;21.576;2023-08-20T08:33:06;9.57;;;8.57;;
45206;SDS011;30950;53.086;21.576;2023-08-20T08:35:34;11.98;;;10.88;;
45206;SDS011;30950;53.086;21.576;2023-08-20T08:38:07;12.73;;;10.13;;
45206;SDS011;30950;53.086;21.576;2023-08-20T08:40:43;12.15;;;11.02;;
45206;SDS011;30950;53.086;21.576;2023-08-20T08:43:10;11.05;;;9.88;;
45206;SDS011;30950;53.086;21.576;2023-08-20T08:45:47;13.07;;;10.15;;
45206;SDS011;30950;53.086;21.576;2023-08-20T08:48:15;11.70;;;10.52;;
45206;SDS011;30950;53.086;21.576;2023-08-20T08:50:44;10.20;;;9.15;;
45206;SDS011;30950;53.086;21.576;2023-08-20T08:53:12;11.32;;;9.88;;
45206;SDS011;30950;53.086;21.576;2023-08-20T08:55:40;11.07;;;10.07;;
45206;SDS011;30950;53.086;21.576;2023-08-20T08:58:09;10.88;;;9.77;;
45206;SDS011;30950;53.086;21.576;2023-08-20T09:00:37;10.63;;;9.23;;
45206;SDS011;30950;53.086;21.576;2023-08-20T09:03:04;10.10;;;9.10;;
45206;SDS011;30950;53.086;21.576;2023-08-20T09:05:32;11.63;;;9.15;;
45206;SDS011;30950;53.086;21.576;2023-08-20T09:07:59;10.38;;;9.30;;
45206;SDS011;30950;53.086;21.576;2023-08-20T09:10:27;10.00;;;9.10;;
45206;SDS011;30950;53.086;21.576;2023-08-20T09:12:54;12.20;;;11.00;;
45206;SDS011;30950;53.086;21.576;2023-08-20T09:15:31;10.80;;;9.68;;
45206;SDS011;30950;53.086;21.576;2023-08-20T09:18:00;10.93;;;9.57;;
45206;SDS011;30950;53.086;21.576;2023-08-20T09:20:33;9.45;;;8.48;;
45206;SDS011;30950;53.086;21.576;2023-08-20T09:23:12;9.85;;;8.90;;
45206;SDS011;30950;53.086;21.576;2023-08-20T09:25:41;19.20;;;17.17;;
45206;SDS011;30950;53.086;21.576;2023-08-20T09:28:09;12.02;;;10.80;;
45206;SDS011;30950;53.086;21.576;2023-08-20T09:30:37;10.45;;;7.97;;
45206;SDS011;30950;53.086;21.576;2023-08-20T09:33:07;8.70;;;7.72;;
45206;SDS011;30950;53.086;21.576;2023-08-20T09:35:38;9.60;;;8.70;;
45206;SDS011;30950;53.086;21.576;2023-08-20T09:38:06;10.35;;;8.50;;
45206;SDS011;30950;53.086;21.576;2023-08-20T09:40:34;9.70;;;8.57;;
45206;SDS011;30950;53.086;21.576;2023-08-20T09:43:01;9.63;;;8.63;;
45206;SDS011;30950;53.086;21.576;2023-08-20T09:45:29;10.07;;;8.95;;
45206;SDS011;30950;53.086;21.576;2023-08-20T09:47:58;9.48;;;8.57;;
45206;SDS011;30950;53.086;21.576;2023-08-20T09:50:28;10.32;;;8.68;;
45206;SDS011;30950;53.086;21.576;2023-08-20T09:53:03;9.57;;;8.68;;
45206;SDS011;30950;53.086;21.576;2023-08-20T09:55:34;9.70;;;8.70;;
45206;SDS011;30950;53.086;21.576;2023-08-20T09:58:05;9.27;;;8.40;;
45206;SDS011;30950;53.086;21.576;2023-08-20T10:00:33;10.32;;;8.60;;
45206;SDS011;30950;53.086;21.576;2023-08-20T10:03:02;8.73;;;7.80;;
45206;SDS011;30950;53.086;21.576;2023-08-20T10:05:30;10.57;;;8.20;;
45206;SDS011;30950;53.086;21.576;2023-08-20T10:07:58;10.07;;;8.02;;
45206;SDS011;30950;53.086;21.576;2023-08-20T10:10:27;9.93;;;8.93;;
45206;SDS011;30950;53.086;21.576;2023-08-20T10:12:54;9.05;;;8.25;;
45206;SDS011;30950;53.086;21.576;2023-08-20T10:15:23;9.65;;;8.63;;
45206;SDS011;30950;53.086;21.576;2023-08-20T10:17:51;9.23;;;8.35;;
45206;SDS011;30950;53.086;21.576;2023-08-20T10:20:19;10.77;;;8.40;;
45206;SDS011;30950;53.086;21.576;2023-08-20T10:22:46;11.18;;;8.85;;
45206;SDS011;30950;53.086;21.576;2023-08-20T10:25:22;10.73;;;8.73;;
45206;SDS011;30950;53.086;21.576;2023-08-20T10:27:50;9.63;;;8.63;;
45206;SDS011;30950;53.086;21.576;2023-08-20T10:30:18;9.65;;;8.73;;
45206;SDS011;30950;53.086;21.576;2023-08-20T10:32:50;9.40;;;8.50;;
45206;SDS011;30950;53.086;21.576;2023-08-20T10:35:30;8.50;;;7.60;;
45206;SDS011;30950;53.086;21.576;2023-08-20T10:38:14;9.32;;;8.43;;
45206;SDS011;30950;53.086;21.576;2023-08-20T10:43:33;8.82;;;8.00;;
45206;SDS011;30950;53.086;21.576;2023-08-20T10:46:23;8.35;;;7.47;;
45206;SDS011;30950;53.086;21.576;2023-08-20T10:48:51;8.90;;;7.32;;
45206;SDS011;30950;53.086;21.576;2023-08-20T10:51:33;8.48;;;7.68;;
45206;SDS011;30950;53.086;21.576;2023-08-20T10:54:03;8.40;;;7.60;;
45206;SDS011;30950;53.086;21.576;2023-08-20T10:56:38;9.07;;;8.00;;
45206;SDS011;30950;53.086;21.576;2023-08-20T11:01:49;9.80;;;8.00;;
45206;SDS011;30950;53.086;21.576;2023-08-20T11:04:18;8.32;;;7.63;;
45206;SDS011;30950;53.086;21.576;2023-08-20T11:06:49;8.05;;;7.25;;
45206;SDS011;30950;53.086;21.576;2023-08-20T11:09:24;8.88;;;7.93;;
45206;SDS011;30950;53.086;21.576;2023-08-20T11:11:53;8.15;;;7.35;;
45206;SDS011;30950;53.086;21.576;2023-08-20T11:14:20;8.40;;;7.50;;
45206;SDS011;30950;53.086;21.576;2023-08-20T11:16:49;7.75;;;7.05;;
45206;SDS011;30950;53.086;21.576;2023-08-20T11:19:20;8.25;;;6.55;;
45206;SDS011;30950;53.086;21.576;2023-08-20T11:21:50;7.68;;;6.75;;
45206;SDS011;30950;53.086;21.576;2023-08-20T11:24:18;9.30;;;7.75;;
45206;SDS011;30950;53.086;21.576;2023-08-20T11:26:47;8.65;;;7.05;;
45206;SDS011;30950;53.086;21.576;2023-08-20T11:29:15;8.32;;;7.43;;
45206;SDS011;30950;53.086;21.576;2023-08-20T11:31:50;9.15;;;7.90;;
45206;SDS011;30950;53.086;21.576;2023-08-20T11:34:18;8.02;;;7.25;;
45206;SDS011;30950;53.086;21.576;2023-08-20T11:36:46;7.47;;;6.68;;
45206;SDS011;30950;53.086;21.576;2023-08-20T11:39:15;7.93;;;7.20;;
45206;SDS011;30950;53.086;21.576;2023-08-20T11:41:43;7.20;;;6.45;;
45206;SDS011;30950;53.086;21.576;2023-08-20T11:44:11;7.57;;;6.85;;
45206;SDS011;30950;53.086;21.576;2023-08-20T11:46:47;7.43;;;6.68;;
45206;SDS011;30950;53.086;21.576;2023-08-20T11:49:15;6.85;;;6.15;;
45206;SDS011;30950;53.086;21.576;2023-08-20T11:51:44;7.10;;;6.40;;
45206;SDS011;30950;53.086;21.576;2023-08-20T11:54:15;11.25;;;6.93;;
45206;SDS011;30950;53.086;21.576;2023-08-20T11:56:44;8.32;;;7.50;;
45206;SDS011;30950;53.086;21.576;2023-08-20T11:59:13;7.72;;;7.00;;
45206;SDS011;30950;53.086;21.576;2023-08-20T12:01:42;7.63;;;6.90;;
45206;SDS011;30950;53.086;21.576;2023-08-20T12:04:10;7.57;;;6.88;;
45206;SDS011;30950;53.086;21.576;2023-08-20T12:06:37;7.85;;;7.07;;
45206;SDS011;30950;53.086;21.576;2023-08-20T12:09:21;8.45;;;7.65;;
45206;SDS011;30950;53.086;21.576;2023-08-20T12:11:54;8.38;;;6.93;;
45206;SDS011;30950;53.086;21.576;2023-08-20T12:14:25;10.27;;;8.43;;
45206;SDS011;30950;53.086;21.576;2023-08-20T12:16:55;8.05;;;7.25;;
45206;SDS011;30950;53.086;21.576;2023-08-20T12:19:24;12.55;;;8.30;;
45206;SDS011;30950;53.086;21.576;2023-08-20T12:21:51;8.18;;;7.10;;
45206;SDS011;30950;53.086;21.576;2023-08-20T12:24:19;7.88;;;7.18;;
45206;SDS011;30950;53.086;21.576;2023-08-20T12:26:47;8.60;;;7.30;;
45206;SDS011;30950;53.086;21.576;2023-08-20T12:29:15;7.97;;;7.18;;
45206;SDS011;30950;53.086;21.576;2023-08-20T12:31:43;7.95;;;7.25;;
45206;SDS011;30950;53.086;21.576;2023-08-20T12:34:10;8.52;;;7.65;;
45206;SDS011;30950;53.086;21.576;2023-08-20T12:36:38;8.18;;;7.22;;
45206;SDS011;30950;53.086;21.576;2023-08-20T12:39:05;8.48;;;6.88;;
45206;SDS011;30950;53.086;21.576;2023-08-20T12:41:33;7.03;;;6.32;;
45206;SDS011;30950;53.086;21.576;2023-08-20T12:44:03;8.32;;;7.55;;
45206;SDS011;30950;53.086;21.576;2023-08-20T12:46:30;7.00;;;6.30;;
45206;SDS011;30950;53.086;21.576;2023-08-20T12:48:58;8.40;;;7.50;;
45206;SDS011;30950;53.086;21.576;2023-08-20T12:51:25;8.50;;;7.50;;
45206;SDS011;30950;53.086;21.576;2023-08-20T12:53:53;8.02;;;6.93;;
45206;SDS011;30950;53.086;21.576;2023-08-20T12:56:21;7.80;;;7.00;;
45206;SDS011;30950;53.086;21.576;2023-08-20T12:58:48;7.43;;;6.72;;
45206;SDS011;30950;53.086;21.576;2023-08-20T13:01:16;8.20;;;7.40;;
45206;SDS011;30950;53.086;21.576;2023-08-20T13:03:45;7.35;;;6.65;;
45206;SDS011;30950;53.086;21.576;2023-08-20T13:06:12;7.97;;;6.70;;
45206;SDS011;30950;53.086;21.576;2023-08-20T13:08:40;7.85;;;7.03;;
45206;SDS011;30950;53.086;21.576;2023-08-20T13:11:08;8.63;;;7.15;;
45206;SDS011;30950;53.086;21.576;2023-08-20T13:13:41;8.50;;;6.88;;
45206;SDS011;30950;53.086;21.576;2023-08-20T13:16:10;8.13;;;6.90;;
45206;SDS011;30950;53.086;21.576;2023-08-20T13:18:38;8.30;;;7.50;;
45206;SDS011;30950;53.086;21.576;2023-08-20T13:21:06;8.27;;;6.80;;
45206;SDS011;30950;53.086;21.576;2023-08-20T13:23:33;7.88;;;6.82;;
45206;SDS011;30950;53.086;21.576;2023-08-20T13:26:01;7.10;;;6.50;;
45206;SDS011;30950;53.086;21.576;2023-08-20T13:28:28;8.05;;;7.32;;
45206;SDS011;30950;53.086;21.576;2023-08-20T13:30:56;6.95;;;6.35;;
45206;SDS011;30950;53.086;21.576;2023-08-20T13:33:23;7.50;;;6.80;;
45206;SDS011;30950;53.086;21.576;2023-08-20T13:35:53;7.40;;;6.60;;
45206;SDS011;30950;53.086;21.576;2023-08-20T13:38:20;7.43;;;6.78;;
45206;SDS011;30950;53.086;21.576;2023-08-20T13:40:49;8.65;;;6.97;;
45206;SDS011;30950;53.086;21.576;2023-08-20T13:43:16;7.03;;;6.40;;
45206;SDS011;30950;53.086;21.576;2023-08-20T13:45:44;7.20;;;6.50;;
45206;SDS011;30950;53.086;21.576;2023-08-20T13:48:12;9.00;;;6.47;;
45206;SDS011;30950;53.086;21.576;2023-08-20T13:50:39;7.22;;;6.57;;
45206;SDS011;30950;53.086;21.576;2023-08-20T13:53:07;8.27;;;6.90;;
45206;SDS011;30950;53.086;21.576;2023-08-20T13:55:34;7.55;;;6.75;;
45206;SDS011;30950;53.086;21.576;2023-08-20T13:58:02;7.22;;;6.53;;
45206;SDS011;30950;53.086;21.576;2023-08-20T14:00:29;6.93;;;6.32;;
45206;SDS011;30950;53.086;21.576;2023-08-20T14:02:57;7.35;;;6.55;;
45206;SDS011;30950;53.086;21.576;2023-08-20T14:05:25;8.23;;;7.07;;
45206;SDS011;30950;53.086;21.576;2023-08-20T14:07:53;8.85;;;7.50;;
45206;SDS011;30950;53.086;21.576;2023-08-20T14:10:20;7.65;;;6.53;;
45206;SDS011;30950;53.086;21.576;2023-08-20T14:12:48;7.47;;;6.78;;
45206;SDS011;30950;53.086;21.576;2023-08-20T14:15:15;7.30;;;6.60;;
45206;SDS011;30950;53.086;21.576;2023-08-20T14:17:42;7.43;;;6.72;;
45206;SDS011;30950;53.086;21.576;2023-08-20T14:20:10;7.60;;;6.90;;
45206;SDS011;30950;53.086;21.576;2023-08-20T14:22:38;7.55;;;6.53;;
45206;SDS011;30950;53.086;21.576;2023-08-20T14:25:06;7.63;;;6.68;;
45206;SDS011;30950;53.086;21.576;2023-08-20T14:27:34;7.30;;;6.60;;
45206;SDS011;30950;53.086;21.576;2023-08-20T14:30:01;8.88;;;6.85;;
45206;SDS011;30950;53.086;21.576;2023-08-20T14:32:29;7.32;;;6.65;;
45206;SDS011;30950;53.086;21.576;2023-08-20T14:34:57;6.97;;;6.30;;
45206;SDS011;30950;53.086;21.576;2023-08-20T14:37:25;7.57;;;6.82;;